createdAt,value
2018-12-06T00:02:19.255Z,18.67
2018-12-06T00:04:47.590Z,21.80
2018-12-06T00:07:15.839Z,23.20
2018-12-06T00:09:44.199Z,20.23
2018-12-06T00:12:12.567Z,21.63
2018-12-06T00:14:40.810Z,18.73
2018-12-06T00:17:09.037Z,17.50
2018-12-06T00:19:37.388Z,18.83
2018-12-06T00:22:05.699Z,20.50
2018-12-06T00:24:33.934Z,19.47
2018-12-06T00:27:02.352Z,19.70
2018-12-06T00:29:30.632Z,21.53
2018-12-06T00:31:58.886Z,22.10
2018-12-06T00:34:27.151Z,19.30
2018-12-06T00:36:55.386Z,20.63
2018-12-06T00:39:23.731Z,17.40
2018-12-06T00:41:52.067Z,21.40
2018-12-06T00:44:20.338Z,18.00
2018-12-06T00:46:48.602Z,18.70
2018-12-06T00:49:16.898Z,15.30
2018-12-06T00:51:45.162Z,17.47
2018-12-06T00:54:13.537Z,19.90
2018-12-06T00:56:41.770Z,18.67
2018-12-06T00:59:10.032Z,22.33
2018-12-06T01:01:38.266Z,25.10
2018-12-06T01:04:06.521Z,15.37
2018-12-06T01:06:34.857Z,20.03
2018-12-06T01:09:03.561Z,18.70
2018-12-06T01:11:32.266Z,19.00
2018-12-06T01:14:00.524Z,21.77
2018-12-06T01:16:28.757Z,19.30
2018-12-06T01:18:57.004Z,21.40
2018-12-06T01:21:25.330Z,22.03
2018-12-06T01:23:53.563Z,18.27
2018-12-06T01:26:22.065Z,21.60
2018-12-06T01:28:50.293Z,23.03
2018-12-06T01:31:18.545Z,25.87
2018-12-06T01:33:46.787Z,24.27
2018-12-06T01:36:15.044Z,28.00
2018-12-06T01:38:43.418Z,22.00
2018-12-06T01:41:11.814Z,21.63
2018-12-06T01:43:40.115Z,27.53
2018-12-06T01:46:08.446Z,28.83
2018-12-06T01:48:36.669Z,25.93
2018-12-06T01:51:05.156Z,24.53
2018-12-06T01:53:33.411Z,23.70
2018-12-06T01:56:01.658Z,26.43
2018-12-06T01:58:29.898Z,25.20
2018-12-06T02:00:58.227Z,29.00
2018-12-06T02:03:26.572Z,25.67
2018-12-06T02:05:54.916Z,32.00
2018-12-06T02:08:29.717Z,27.30
2018-12-06T02:10:57.994Z,28.00
2018-12-06T02:13:26.271Z,32.40
2018-12-06T02:15:54.527Z,28.80
2018-12-06T02:18:23.069Z,30.60
2018-12-06T02:20:51.475Z,30.60
2018-12-06T02:23:19.893Z,34.23
2018-12-06T02:25:48.147Z,37.20
2018-12-06T02:28:16.402Z,27.93
2018-12-06T02:30:44.650Z,31.97
2018-12-06T02:33:12.870Z,30.00
2018-12-06T02:35:41.132Z,26.93
2018-12-06T02:38:09.368Z,31.97
2018-12-06T02:40:37.603Z,33.00
2018-12-06T02:43:05.862Z,32.50
2018-12-06T02:45:34.107Z,27.20
2018-12-06T02:48:02.381Z,38.63
2018-12-06T02:50:30.640Z,36.37
2018-12-06T02:52:58.967Z,34.23
2018-12-06T02:55:27.251Z,30.10
2018-12-06T02:57:55.484Z,32.87
2018-12-06T03:00:24.185Z,34.83
2018-12-06T03:02:52.523Z,36.83
2018-12-06T03:05:20.758Z,31.67
2018-12-06T03:07:49.010Z,31.20
2018-12-06T03:10:17.271Z,30.90
2018-12-06T03:12:45.591Z,35.67
2018-12-06T03:15:13.841Z,36.37
2018-12-06T03:17:42.185Z,37.30
2018-12-06T03:20:10.418Z,41.73
2018-12-06T03:22:38.725Z,43.43
2018-12-06T03:25:07.143Z,36.00
2018-12-06T03:27:35.374Z,39.37
2018-12-06T03:30:04.313Z,44.07
2018-12-06T03:32:32.632Z,40.00
2018-12-06T03:35:00.893Z,37.37
2018-12-06T03:37:29.196Z,42.83
2018-12-06T03:39:57.445Z,32.63
2018-12-06T03:42:25.700Z,37.00
2018-12-06T03:44:53.913Z,42.87
2018-12-06T03:47:22.342Z,37.73
2018-12-06T03:49:50.603Z,38.90
2018-12-06T03:52:18.875Z,39.53
2018-12-06T03:55:01.753Z,39.90
2018-12-06T03:57:30.082Z,43.20
2018-12-06T03:59:58.311Z,35.90
2018-12-06T04:02:26.549Z,44.63
2018-12-06T04:04:54.780Z,42.33
2018-12-06T04:07:23.182Z,44.53
2018-12-06T04:09:51.415Z,42.03
2018-12-06T04:12:19.740Z,40.63
2018-12-06T04:14:47.978Z,45.10
2018-12-06T04:17:16.221Z,39.50
2018-12-06T04:19:44.491Z,42.50
2018-12-06T04:22:13.082Z,43.70
2018-12-06T04:24:41.345Z,46.67
2018-12-06T04:27:09.583Z,41.63
2018-12-06T04:29:37.840Z,40.47
2018-12-06T04:32:06.055Z,43.50
2018-12-06T04:34:34.296Z,45.63
2018-12-06T04:37:02.603Z,44.70
2018-12-06T04:39:30.936Z,36.27
2018-12-06T04:41:59.170Z,41.50
2018-12-06T04:44:27.421Z,40.67
2018-12-06T04:46:55.686Z,45.47
2018-12-06T04:49:23.975Z,43.17
2018-12-06T04:51:52.247Z,38.30
2018-12-06T04:54:20.618Z,41.00
2018-12-06T04:56:48.959Z,40.37
2018-12-06T04:59:17.226Z,44.30
2018-12-06T05:01:45.534Z,37.83
2018-12-06T05:04:13.785Z,43.37
2018-12-06T05:06:42.019Z,42.07
2018-12-06T05:09:10.368Z,43.80
2018-12-06T05:11:38.620Z,41.90
2018-12-06T05:14:06.863Z,42.50
2018-12-06T05:16:35.152Z,40.87
2018-12-06T05:19:03.484Z,46.00
2018-12-06T05:21:31.866Z,47.97
2018-12-06T05:24:00.133Z,51.40
2018-12-06T05:26:28.470Z,48.23
2018-12-06T05:28:56.754Z,51.00
2018-12-06T05:31:25.021Z,51.70
2018-12-06T05:33:54.110Z,52.53
2018-12-06T05:36:22.566Z,45.70
2018-12-06T05:38:50.825Z,57.50
2018-12-06T05:41:19.106Z,49.30
2018-12-06T05:43:47.386Z,43.07
2018-12-06T05:46:15.629Z,53.20
2018-12-06T05:48:43.948Z,53.97
2018-12-06T05:51:12.196Z,49.50
2018-12-06T05:53:40.441Z,49.53
2018-12-06T05:56:08.698Z,57.73
2018-12-06T05:58:36.998Z,55.30
2018-12-06T06:01:05.587Z,42.53
2018-12-06T06:03:34.063Z,43.70
2018-12-06T06:06:02.353Z,48.67
2018-12-06T06:08:30.671Z,44.47
2018-12-06T06:10:58.972Z,49.43
2018-12-06T06:13:27.230Z,40.77
2018-12-06T06:15:55.486Z,50.47
2018-12-06T06:18:23.914Z,44.77
2018-12-06T06:20:52.223Z,52.30
2018-12-06T06:23:20.485Z,46.67
2018-12-06T06:25:48.755Z,44.73
2018-12-06T06:28:17.037Z,46.70
2018-12-06T06:30:45.281Z,42.57
2018-12-06T06:33:13.523Z,41.17
2018-12-06T06:35:41.769Z,36.83
2018-12-06T06:38:09.978Z,46.43
2018-12-06T06:40:38.261Z,41.60
2018-12-06T06:43:06.619Z,36.13
2018-12-06T06:45:34.877Z,38.33
2018-12-06T06:48:03.097Z,35.83
2018-12-06T06:50:31.325Z,33.20
2018-12-06T06:52:59.549Z,38.23
2018-12-06T06:55:27.796Z,42.43
2018-12-06T06:57:56.022Z,39.83
2018-12-06T07:00:24.361Z,36.90
2018-12-06T07:02:52.665Z,35.37
2018-12-06T07:05:21.119Z,40.27
2018-12-06T07:07:49.342Z,35.70
2018-12-06T07:10:17.663Z,36.63
2018-12-06T07:12:45.995Z,30.33
2018-12-06T07:15:14.379Z,41.13
2018-12-06T07:17:43.010Z,38.77
2018-12-06T07:20:11.249Z,38.33
2018-12-06T07:22:39.593Z,33.13
2018-12-06T07:25:08.323Z,38.07
2018-12-06T07:27:36.575Z,34.60
2018-12-06T07:30:12.091Z,34.60
2018-12-06T07:32:35.912Z,38.03
2018-12-06T07:35:04.528Z,27.83
2018-12-06T07:37:32.910Z,38.33
2018-12-06T07:40:01.155Z,33.30
2018-12-06T07:42:29.475Z,33.90
2018-12-06T07:44:57.724Z,26.77
2018-12-06T07:47:25.983Z,30.87
2018-12-06T07:49:54.252Z,33.40
2018-12-06T07:52:23.434Z,26.10
2018-12-06T07:54:51.690Z,30.80
2018-12-06T07:57:19.943Z,27.33
2018-12-06T07:59:48.199Z,29.37
2018-12-06T08:02:16.439Z,31.80
2018-12-06T08:04:44.938Z,24.37
2018-12-06T08:07:13.537Z,22.33
2018-12-06T08:09:41.850Z,24.17
2018-12-06T08:12:10.273Z,27.57
2018-12-06T08:14:38.544Z,23.30
2018-12-06T08:17:06.893Z,30.73
2018-12-06T08:19:35.142Z,28.63
2018-12-06T08:24:46.334Z,19.50
2018-12-06T08:27:14.991Z,20.50
2018-12-06T08:29:43.250Z,25.37
2018-12-06T08:32:11.536Z,20.97
2018-12-06T08:34:39.838Z,14.13
2018-12-06T08:37:08.922Z,13.80
2018-12-06T08:39:37.169Z,21.93
2018-12-06T08:42:05.405Z,17.47
2018-12-06T08:44:33.662Z,20.63
2018-12-06T08:47:01.917Z,12.90
2018-12-06T08:49:30.167Z,17.43
2018-12-06T08:51:58.414Z,14.70
2018-12-06T08:54:26.670Z,20.57
2018-12-06T08:56:54.936Z,13.73
2018-12-06T08:59:23.191Z,18.77
2018-12-06T09:01:51.447Z,16.03
2018-12-06T09:04:19.691Z,15.17
2018-12-06T09:06:47.954Z,17.03
2018-12-06T09:09:16.222Z,12.90
2018-12-06T09:11:44.507Z,13.80
2018-12-06T09:14:12.758Z,11.63
2018-12-06T09:16:41.008Z,14.77
2018-12-06T09:19:09.273Z,9.33
2018-12-06T09:21:37.494Z,15.53
2018-12-06T09:24:05.839Z,18.43
2018-12-06T09:26:34.050Z,20.17
2018-12-06T09:29:02.431Z,13.50
2018-12-06T09:31:30.710Z,11.73
2018-12-06T09:34:05.187Z,12.40
2018-12-06T09:36:33.597Z,17.50
2018-12-06T09:39:01.908Z,16.63
2018-12-06T09:41:30.159Z,21.47
2018-12-06T09:43:58.506Z,13.57
2018-12-06T09:46:28.910Z,13.20
2018-12-06T09:48:57.160Z,14.97
2018-12-06T09:51:25.408Z,13.53
2018-12-06T09:53:53.766Z,13.60
2018-12-06T09:56:22.154Z,14.10
2018-12-06T09:58:50.534Z,24.10
2018-12-06T10:01:18.899Z,19.90
2018-12-06T10:03:47.169Z,15.17
2018-12-06T10:06:15.537Z,11.47
2018-12-06T10:08:43.776Z,14.13
2018-12-06T10:11:13.305Z,15.53
2018-12-06T10:13:41.541Z,13.83
2018-12-06T10:16:09.802Z,16.27
2018-12-06T10:18:38.110Z,22.63
2018-12-06T10:21:06.483Z,17.30
2018-12-06T10:23:34.830Z,18.53
2018-12-06T10:26:03.090Z,10.37
2018-12-06T10:28:31.399Z,14.10
2018-12-06T10:30:59.651Z,17.60
2018-12-06T10:33:27.922Z,9.13
2018-12-06T10:35:56.145Z,8.60
2018-12-06T10:38:24.552Z,11.30
2018-12-06T10:40:52.894Z,12.97
2018-12-06T10:43:21.423Z,12.10
2018-12-06T10:45:49.739Z,10.43
2018-12-06T10:48:24.307Z,16.90
2018-12-06T10:50:54.614Z,12.50
2018-12-06T10:53:23.005Z,15.60
2018-12-06T10:55:51.259Z,15.90
2018-12-06T10:58:19.520Z,20.00
2018-12-06T11:00:57.208Z,19.13
2018-12-06T11:03:25.558Z,15.00
2018-12-06T11:05:53.880Z,19.40
2018-12-06T11:08:22.135Z,17.23
2018-12-06T11:10:50.381Z,19.80
2018-12-06T11:13:18.599Z,16.67
2018-12-06T11:15:46.888Z,20.77
2018-12-06T11:18:15.129Z,18.67
2018-12-06T11:20:43.427Z,24.43
2018-12-06T11:23:11.709Z,14.90
2018-12-06T11:25:39.955Z,22.77
2018-12-06T11:28:08.206Z,18.77
2018-12-06T11:30:36.504Z,18.77
2018-12-06T11:33:04.875Z,17.23
2018-12-06T11:35:33.207Z,14.37
2018-12-06T11:38:01.543Z,22.30
2018-12-06T11:40:29.819Z,24.67
2018-12-06T11:42:58.143Z,16.10
2018-12-06T11:45:26.458Z,14.50
2018-12-06T11:47:55.994Z,16.90
2018-12-06T11:50:24.796Z,12.20
2018-12-06T11:52:53.131Z,16.30
2018-12-06T11:55:21.455Z,13.90
2018-12-06T11:57:49.860Z,13.47
2018-12-06T12:00:18.199Z,13.40
2018-12-06T12:02:46.540Z,11.67
2018-12-06T12:05:14.862Z,15.57
2018-12-06T12:07:43.234Z,16.83
2018-12-06T12:10:11.588Z,13.43
2018-12-06T12:12:39.851Z,14.17
2018-12-06T12:15:08.250Z,12.93
2018-12-06T12:17:36.502Z,15.20
2018-12-06T12:20:05.808Z,10.90
2018-12-06T12:22:34.463Z,14.00
2018-12-06T12:25:02.702Z,11.73
2018-12-06T12:27:30.967Z,13.90
2018-12-06T12:29:59.218Z,14.53
2018-12-06T12:32:27.482Z,10.50
2018-12-06T12:34:55.744Z,11.67
2018-12-06T12:37:24.091Z,13.03
2018-12-06T12:39:52.358Z,18.53
2018-12-06T12:42:20.604Z,12.13
2018-12-06T12:44:48.939Z,9.80
2018-12-06T12:47:17.184Z,8.53
2018-12-06T12:49:45.467Z,11.50
2018-12-06T12:52:13.908Z,15.20
2018-12-06T12:54:42.163Z,13.03
2018-12-06T12:57:10.396Z,12.63
2018-12-06T12:59:38.833Z,6.17
2018-12-06T13:02:07.091Z,10.17
2018-12-06T13:04:35.411Z,13.63
2018-12-06T13:07:10.139Z,10.23
2018-12-06T13:09:38.473Z,13.67
2018-12-06T13:12:06.880Z,13.23
2018-12-06T13:14:35.431Z,12.73
2018-12-06T13:17:04.322Z,8.83
2018-12-06T13:20:06.382Z,8.53
2018-12-06T13:22:34.766Z,17.37
2018-12-06T13:25:03.001Z,14.80
2018-12-06T13:27:31.219Z,14.60
2018-12-06T13:29:59.614Z,14.50
2018-12-06T13:32:28.251Z,12.03
2018-12-06T13:34:56.559Z,13.20
2018-12-06T13:37:24.781Z,13.57
2018-12-06T13:39:53.103Z,14.73
2018-12-06T13:42:23.763Z,15.73
2018-12-06T13:44:51.766Z,22.23
2018-12-06T13:47:20.012Z,13.07
2018-12-06T13:49:48.330Z,23.60
2018-12-06T13:52:16.568Z,15.10
2018-12-06T13:54:44.826Z,15.43
2018-12-06T13:57:13.077Z,20.70
2018-12-06T13:59:41.399Z,12.77
2018-12-06T14:02:09.739Z,12.73
2018-12-06T14:04:37.967Z,19.97
2018-12-06T14:07:06.189Z,26.60
2018-12-06T14:09:34.419Z,20.90
2018-12-06T14:12:02.642Z,12.40
2018-12-06T14:14:30.867Z,15.40
2018-12-06T14:16:59.101Z,13.33
2018-12-06T14:19:27.336Z,10.40
2018-12-06T14:21:55.951Z,9.33
2018-12-06T14:24:24.515Z,15.67
2018-12-06T14:26:52.726Z,14.97
2018-12-06T14:29:20.975Z,19.80
2018-12-06T14:31:49.215Z,17.00
2018-12-06T14:34:17.503Z,9.53
2018-12-06T14:36:45.725Z,11.33
2018-12-06T14:39:13.998Z,9.80
2018-12-06T14:41:42.311Z,8.50
2018-12-06T14:44:10.599Z,7.60
2018-12-06T14:46:38.909Z,5.60
2018-12-06T14:49:07.239Z,10.80
2018-12-06T14:51:35.470Z,11.70
2018-12-06T14:54:03.755Z,10.60
2018-12-06T14:56:31.970Z,9.53
2018-12-06T14:59:00.974Z,11.27
2018-12-06T15:01:29.273Z,11.70
2018-12-06T15:03:57.583Z,11.03
2018-12-06T15:06:25.811Z,8.53
2018-12-06T15:08:54.038Z,11.30
2018-12-06T15:11:22.271Z,16.07
2018-12-06T15:13:50.514Z,13.60
2018-12-06T15:16:18.851Z,14.60
2018-12-06T15:18:47.190Z,13.63
2018-12-06T15:21:15.431Z,11.10
2018-12-06T15:23:43.658Z,17.27
2018-12-06T15:26:11.984Z,11.23
2018-12-06T15:28:40.210Z,16.27
2018-12-06T15:31:08.449Z,12.50
2018-12-06T15:33:36.674Z,11.67
2018-12-06T15:36:04.985Z,13.63
2018-12-06T15:38:33.206Z,12.03
2018-12-06T15:41:01.435Z,13.63
2018-12-06T15:43:29.721Z,10.40
2018-12-06T15:45:58.039Z,10.30
2018-12-06T15:48:26.271Z,8.00
2018-12-06T15:50:54.495Z,6.80
2018-12-06T15:53:22.730Z,6.17
2018-12-06T15:55:51.054Z,12.60
2018-12-06T15:58:19.323Z,9.13
2018-12-06T16:00:47.640Z,9.23
2018-12-06T16:03:15.975Z,8.63
2018-12-06T16:05:44.290Z,7.83
2018-12-06T16:08:13.044Z,8.53
2018-12-06T16:10:41.319Z,12.40
2018-12-06T16:13:09.974Z,13.70
2018-12-06T16:15:38.351Z,11.40
2018-12-06T16:18:06.612Z,12.23
2018-12-06T16:20:34.822Z,11.20
2018-12-06T16:23:03.058Z,13.60
2018-12-06T16:25:31.333Z,10.80
2018-12-06T16:27:59.597Z,13.13
2018-12-06T16:30:27.981Z,17.47
2018-12-06T16:32:56.269Z,16.47
2018-12-06T16:35:24.791Z,17.07
2018-12-06T16:37:53.111Z,9.83
2018-12-06T16:40:21.391Z,10.50
2018-12-06T16:42:49.618Z,13.60
2018-12-06T16:45:17.883Z,12.30
2018-12-06T16:47:46.144Z,11.03
2018-12-06T16:50:14.426Z,9.87
2018-12-06T16:52:42.674Z,11.73
2018-12-06T16:55:11.105Z,9.10
2018-12-06T16:57:39.450Z,9.70
2018-12-06T17:00:11.702Z,11.40
2018-12-06T17:02:40.155Z,10.03
2018-12-06T17:05:08.569Z,9.27
2018-12-06T17:07:36.887Z,7.70
2018-12-06T17:10:06.518Z,9.90
2018-12-06T17:12:35.291Z,11.20
2018-12-06T17:15:03.893Z,9.80
2018-12-06T17:17:32.181Z,12.83
2018-12-06T17:20:00.434Z,13.33
2018-12-06T17:22:28.698Z,11.37
2018-12-06T17:24:56.947Z,10.90
2018-12-06T17:27:25.228Z,12.27
2018-12-06T17:29:53.871Z,9.43
2018-12-06T17:32:22.525Z,12.53
2018-12-06T17:34:50.769Z,8.87
2018-12-06T17:37:19.189Z,10.23
2018-12-06T17:39:47.443Z,8.00
2018-12-06T17:42:15.695Z,9.20
2018-12-06T17:44:44.142Z,9.97
2018-12-06T17:47:12.658Z,18.47
2018-12-06T17:49:40.920Z,10.60
2018-12-06T17:52:09.232Z,14.20
2018-12-06T17:54:37.532Z,11.30
2018-12-06T17:57:06.583Z,9.70
2018-12-06T17:59:36.338Z,8.00
2018-12-06T18:02:05.386Z,15.10
2018-12-06T18:04:33.746Z,13.23
2018-12-06T18:07:02.848Z,11.07
2018-12-06T18:09:31.099Z,8.43
2018-12-06T18:11:59.395Z,7.70
2018-12-06T18:14:27.715Z,7.07
2018-12-06T18:16:56.055Z,7.07
2018-12-06T18:19:24.311Z,7.90
2018-12-06T18:21:52.603Z,12.60
2018-12-06T18:24:20.843Z,12.00
2018-12-06T18:26:49.191Z,11.60
2018-12-06T18:29:17.615Z,15.93
2018-12-06T18:31:45.959Z,8.77
2018-12-06T18:34:14.248Z,14.53
2018-12-06T18:36:42.497Z,13.67
2018-12-06T18:39:10.901Z,10.53
2018-12-06T18:41:39.198Z,11.30
2018-12-06T18:44:07.432Z,11.63
2018-12-06T18:46:35.698Z,13.00
2018-12-06T18:49:04.396Z,10.53
2018-12-06T18:51:32.742Z,12.60
2018-12-06T18:54:01.068Z,10.70
2018-12-06T18:56:29.417Z,6.60
2018-12-06T18:58:57.671Z,6.80
2018-12-06T19:01:25.978Z,9.50
2018-12-06T19:03:54.229Z,7.30
2018-12-06T19:06:22.481Z,7.70
2018-12-06T19:08:50.782Z,4.70
2018-12-06T19:11:19.014Z,4.80
2018-12-06T19:13:47.362Z,4.37
2018-12-06T19:16:22.549Z,5.80
2018-12-06T19:18:50.865Z,3.33
2018-12-06T19:21:19.102Z,3.73
2018-12-06T19:23:47.337Z,2.87
2018-12-06T19:26:15.631Z,6.87
2018-12-06T19:28:43.865Z,7.80
2018-12-06T19:31:12.122Z,6.87
2018-12-06T19:33:40.358Z,7.10
2018-12-06T19:36:08.716Z,8.67
2018-12-06T19:38:37.149Z,13.40
2018-12-06T19:41:05.450Z,14.00
2018-12-06T19:43:33.700Z,11.90
2018-12-06T19:46:02.039Z,17.90
2018-12-06T19:48:30.274Z,18.23
2018-12-06T19:50:58.566Z,26.50
2018-12-06T19:53:26.790Z,21.30
2018-12-06T19:56:09.630Z,18.13
2018-12-06T19:58:37.924Z,15.10
2018-12-06T20:01:06.431Z,17.50
2018-12-06T20:03:34.714Z,14.80
2018-12-06T20:06:03.055Z,17.23
2018-12-06T20:08:31.282Z,18.10
2018-12-06T20:10:59.553Z,27.20
2018-12-06T20:13:27.790Z,25.63
2018-12-06T20:15:56.055Z,21.53
2018-12-06T20:18:24.382Z,27.80
2018-12-06T20:20:52.643Z,39.93
2018-12-06T20:23:20.958Z,30.20
2018-12-06T20:25:49.195Z,31.20
2018-12-06T20:28:17.479Z,37.20
2018-12-06T20:30:45.708Z,36.27
2018-12-06T20:33:13.966Z,39.20
2018-12-06T20:35:42.235Z,28.70
2018-12-06T20:38:10.474Z,27.13
2018-12-06T20:40:38.832Z,31.50
2018-12-06T20:43:07.113Z,39.93
2018-12-06T20:45:35.449Z,21.17
2018-12-06T20:48:03.842Z,35.83
2018-12-06T20:50:32.072Z,28.07
2018-12-06T20:53:00.306Z,37.70
2018-12-06T20:55:28.674Z,24.40
2018-12-06T20:57:57.023Z,30.37
2018-12-06T21:00:25.260Z,27.03
2018-12-06T21:02:53.531Z,28.70
2018-12-06T21:05:21.872Z,31.03
2018-12-06T21:07:50.112Z,27.80
2018-12-06T21:10:18.437Z,27.10
2018-12-06T21:12:46.690Z,21.23
2018-12-06T21:15:14.960Z,19.70
2018-12-06T21:17:43.239Z,26.40
2018-12-06T21:20:11.579Z,21.90
2018-12-06T21:22:39.850Z,21.27
2018-12-06T21:25:08.270Z,23.13
2018-12-06T21:27:36.596Z,20.83
2018-12-06T21:30:05.163Z,18.10
2018-12-06T21:32:33.430Z,14.03
2018-12-06T21:35:01.667Z,20.47
2018-12-06T21:37:29.896Z,19.43
2018-12-06T21:39:58.154Z,15.40
2018-12-06T21:42:26.392Z,15.33
2018-12-06T21:44:54.703Z,12.80
2018-12-06T21:47:25.603Z,15.97
2018-12-06T21:49:54.870Z,16.53
2018-12-06T21:52:23.213Z,12.27
2018-12-06T21:54:51.442Z,8.50
2018-12-06T21:57:19.675Z,9.10
2018-12-06T21:59:48.682Z,12.37
2018-12-06T22:02:22.395Z,8.07
2018-12-06T22:04:50.718Z,21.40
2018-12-06T22:07:19.907Z,14.47
2018-12-06T22:09:48.255Z,11.30
2018-12-06T22:12:16.509Z,8.40
2018-12-06T22:14:44.743Z,14.93
2018-12-06T22:17:12.951Z,19.57
2018-12-06T22:19:41.266Z,12.03
2018-12-06T22:22:09.577Z,17.63
2018-12-06T22:24:37.896Z,13.13
2018-12-06T22:27:06.129Z,10.23
2018-12-06T22:29:34.391Z,11.00
2018-12-06T22:32:02.709Z,7.40
2018-12-06T22:34:30.977Z,10.20
2018-12-06T22:37:00.050Z,9.00
2018-12-06T22:39:28.283Z,8.93
2018-12-06T22:41:56.524Z,8.53
2018-12-06T22:44:24.767Z,6.23
2018-12-06T22:46:53.578Z,5.47
2018-12-06T22:49:21.923Z,12.47
2018-12-06T22:51:50.485Z,8.23
2018-12-06T22:54:18.802Z,8.97
2018-12-06T22:56:47.023Z,7.73
2018-12-06T22:59:15.234Z,5.43
2018-12-06T23:01:43.716Z,5.20
2018-12-06T23:04:11.944Z,4.50
2018-12-06T23:06:40.191Z,6.67
2018-12-06T23:09:09.789Z,4.00
2018-12-06T23:11:38.665Z,4.73
2018-12-06T23:14:07.121Z,3.90
2018-12-06T23:16:35.345Z,4.83
2018-12-06T23:19:04.130Z,6.17
2018-12-06T23:21:32.434Z,4.60
2018-12-06T23:24:00.706Z,4.50
2018-12-06T23:26:29.089Z,3.97
2018-12-06T23:28:57.443Z,3.77
2018-12-06T23:31:25.675Z,5.50
2018-12-06T23:33:53.914Z,6.77
2018-12-06T23:36:22.134Z,7.10
2018-12-06T23:38:50.345Z,7.77
2018-12-06T23:41:18.634Z,7.23
2018-12-06T23:43:46.858Z,4.63
2018-12-06T23:46:15.064Z,7.03
2018-12-06T23:48:43.285Z,5.77
2018-12-06T23:51:22.870Z,5.70
2018-12-06T23:53:51.086Z,6.03
2018-12-06T23:56:19.322Z,5.53
2018-12-06T23:58:47.534Z,6.33
